Laura B — WDI9376 — position and weather

sailwx.info

Track history (hours):
 
Tides and Currents Weather Stations Pressure Air Temp Water Temp Dewpoint Dewpoint Depression Visibility Wind Speed Wind Dir Waves Ship Positions

Laura B

Owner: G & H TOWING COMPANY, Galveston, TX. More information available from US FCC via Universal Licensing System and Coast Guard Vessel Documentation Center.

Last reported at 2018-Jul-21 16:39 UTC. Time now 2018-Jul-21 19:28 UTC.
Position N 29°45' W 095°12'.

Length 24 m; draft 4.9 m.

Type: Tug. MMSI: 367748030.

Date/timePositionNaut miles runAvg speedWind from/ knotsBaromVisibWave heightAir tempDewpointWater temp
2018-Jul-21 16:39N 29°45' W 095°12'0 0.3
2018-Jul-21 15:41N 29°44' W 095°12'2 6.9
2018-Jul-21 15:24N 29°45' W 095°10'2 3.6
2018-Jul-21 14:44N 29°44' W 095°07'0 0.0
2018-Jul-21 14:18N 29°44' W 095°07'1 0.7
2018-Jul-21 13:24N 29°44' W 095°07'0 0.1
2018-Jul-21 13:00N 29°44' W 095°07'0 0.3
2018-Jul-21 12:27N 29°45' W 095°07'0 0.2
2018-Jul-21 11:25N 29°45' W 095°06'4 8.3
2018-Jul-21 11:00N 29°45' W 095°10'1 2.6
2018-Jul-21 10:27N 29°44' W 095°12'0 0.3
2018-Jul-21 09:59N 29°45' W 095°12'2 3.1
2018-Jul-21 09:29N 29°45' W 095°10'0 0.0
2018-Jul-21 07:49N 29°45' W 095°10'0 0.0
2018-Jul-21 07:25N 29°45' W 095°10'0 0.0
2018-Jul-21 06:52N 29°45' W 095°10'0 0.0
2018-Jul-21 05:34N 29°45' W 095°10'3 0.7
2018-Jul-21 01:42N 29°43' W 095°13'0 0.9
2018-Jul-21 01:29N 29°44' W 095°13'5 0.7
2018-Jul-20 17:54N 29°44' W 095°07'1 0.2
2018-Jul-20 13:17N 29°45' W 095°07'0 0.0
2018-Jul-20 12:59N 29°45' W 095°07'0 0.0
2018-Jul-20 12:09N 29°45' W 095°07'1 3.4
2018-Jul-20 12:00N 29°44' W 095°07'0 0.4
2018-Jul-20 11:25N 29°44' W 095°07'0 0.0
2018-Jul-20 10:59N 29°44' W 095°07'1 2.1
2018-Jul-20 10:30N 29°44' W 095°09'1 3.0
2018-Jul-20 10:00N 29°45' W 095°10'0 0.4
2018-Jul-20 09:30N 29°45' W 095°10'1 2.9
2018-Jul-20 09:00N 29°44' W 095°09'3 3.8
2018-Jul-20 08:12N 29°44' W 095°12'0 0.0
2018-Jul-20 08:00N 29°44' W 095°12'0 0.9
2018-Jul-20 07:30N 29°45' W 095°12'3 5.7
2018-Jul-20 07:00N 29°44' W 095°08'1 2.8
2018-Jul-20 06:30N 29°44' W 095°07'0 0.0
2018-Jul-20 05:36N 29°44' W 095°07'0 0.0
2018-Jul-20 05:18N 29°44' W 095°07'0 0.0
2018-Jul-20 04:51N 29°44' W 095°07'0 0.0
2018-Jul-20 04:27N 29°44' W 095°07'2 2.5
2018-Jul-20 03:27N 29°46' W 095°04'3 7.2
2018-Jul-20 03:00N 29°44' W 095°01'1 1.1
2018-Jul-20 01:49N 29°42' W 095°01'2 7.8
2018-Jul-20 01:30N 29°41' W 094°59'1 1.1
2018-Jul-20 00:52N 29°41' W 094°60'1 1.3
2018-Jul-20 00:28N 29°41' W 094°59'7 2.9
2018-Jul-19 22:02N 29°46' W 095°05'0 0.1
2018-Jul-19 21:56N 29°46' W 095°05'1 0.1
2018-Jul-19 17:07N 29°45' W 095°06'0 0.0
2018-Jul-19 17:00N 29°45' W 095°06'0 0.1
2018-Jul-19 16:24N 29°45' W 095°06'1 3.3
2018-Jul-19 16:00N 29°45' W 095°04'2 0.8
2018-Jul-19 13:12N 29°45' W 095°07'0 0.0
2018-Jul-19 11:21N 29°45' W 095°07'0 0.0
2018-Jul-19 10:48N 29°45' W 095°07'0 0.0
2018-Jul-19 08:03N 29°45' W 095°07'0 0.0
2018-Jul-19 07:54N 29°45' W 095°07'0 0.0
2018-Jul-19 07:18N 29°45' W 095°07'0 0.0
2018-Jul-19 06:42N 29°45' W 095°07'0 0.0
2018-Jul-19 06:30N 29°45' W 095°07'1 1.2
2018-Jul-19 05:55N 29°44' W 095°07'0 0.2
2018-Jul-19 05:30N 29°44' W 095°07'2 3.0
2018-Jul-19 04:57N 29°45' W 095°06'0 0.0
2018-Jul-19 04:30N 29°45' W 095°06'0 0.0
2018-Jul-19 03:48N 29°45' W 095°06'0 0.0
2018-Jul-19 03:30N 29°45' W 095°06'0 0.0
2018-Jul-19 02:51N 29°45' W 095°06'5 2.2
2018-Jul-19 00:44N 29°43' W 095°01'2 8.7
2018-Jul-19 00:29N 29°41' W 094°59'1 1.2
2018-Jul-18 23:36N 29°41' W 095°00'0 2.8
2018-Jul-18 23:30N 29°41' W 095°00'1 2.5
2018-Jul-18 22:55N 29°40' W 094°59'1 2.2
2018-Jul-18 22:30N 29°41' W 094°59'4 7.7
2018-Jul-18 21:57N 29°44' W 095°03'4 2.6
2018-Jul-18 20:20N 29°44' W 095°08'1 0.1
2018-Jul-18 12:33N 29°45' W 095°07'0 0.0
2018-Jul-18 12:04N 29°45' W 095°07'0 4.9
2018-Jul-18 11:59N 29°44' W 095°07'0 0.7
2018-Jul-18 11:31N 29°44' W 095°07'1 1.3
2018-Jul-18 10:26N 29°45' W 095°06'0 0.0
2018-Jul-18 10:00N 29°45' W 095°06'1 2.8
2018-Jul-18 09:30N 29°46' W 095°05'1 1.1
2018-Jul-18 09:00N 29°46' W 095°05'1 0.7
2018-Jul-18 06:57N 29°45' W 095°07'0 0.0
2018-Jul-18 06:27N 29°45' W 095°07'0 0.0
2018-Jul-18 04:43N 29°45' W 095°07'1 6.2
2018-Jul-18 04:30N 29°45' W 095°06'5 3.3
2018-Jul-18 03:02N 29°42' W 095°01'0 5.9
2018-Jul-18 03:00N 29°42' W 095°01'2 0.4
2018-Jul-17 23:18N 29°42' W 094°59'1 1.5
2018-Jul-17 22:35N 29°41' W 095°00'0 3.3
2018-Jul-17 22:30N 29°41' W 095°00'2 3.3
2018-Jul-17 21:59N 29°40' W 094°59'1 2.6
2018-Jul-17 21:30N 29°41' W 094°59'1 2.3
2018-Jul-17 21:00N 29°41' W 095°00'0 0.1
2018-Jul-17 20:17N 29°41' W 095°00'1 3.9
2018-Jul-17 19:57N 29°41' W 094°59'0 0.4
2018-Jul-17 19:30N 29°41' W 094°59'0 0.0
2018-Jul-17 18:59N 29°41' W 094°59'0 0.0
2018-Jul-17 18:29N 29°41' W 094°59'1 2.2
2018-Jul-17 18:00N 29°41' W 095°00'2 3.8
2018-Jul-17 17:23N 29°39' W 094°58'1 2.3
2018-Jul-17 17:00N 29°40' W 094°59'5 6.7
2018-Jul-17 16:16N 29°44' W 095°02'3 9.3
2018-Jul-17 15:58N 29°46' W 095°05'5 1.8
2018-Jul-17 13:21N 29°45' W 095°10'1 3.8
2018-Jul-17 13:00N 29°44' W 095°09'1 1.3
2018-Jul-17 12:21N 29°44' W 095°08'0 0.9
2018-Jul-17 11:50N 29°44' W 095°07'0 0.0
2018-Jul-17 11:29N 29°44' W 095°07'0 0.7
2018-Jul-17 10:57N 29°44' W 095°07'0 0.0
2018-Jul-17 08:43N 29°44' W 095°07'2 8.1
2018-Jul-17 08:30N 29°44' W 095°09'2 3.9
2018-Jul-17 08:00N 29°45' W 095°11'0 0.7
2018-Jul-17 07:30N 29°45' W 095°11'0 0.4
2018-Jul-17 06:59N 29°45' W 095°11'0 0.0
2018-Jul-17 06:30N 29°45' W 095°11'0 0.0
2018-Jul-17 06:00N 29°45' W 095°11'0 0.0
2018-Jul-17 05:30N 29°45' W 095°11'0 0.0
2018-Jul-17 05:00N 29°45' W 095°11'0 0.0
2018-Jul-17 04:30N 29°45' W 095°11'1 1.5
2018-Jul-17 04:00N 29°44' W 095°10'3 1.6
2018-Jul-17 02:21N 29°44' W 095°07'1 0.4
2018-Jul-16 23:22N 29°44' W 095°08'6 1.8
2018-Jul-16 20:06N 29°43' W 095°01'1 5.3
2018-Jul-16 20:00N 29°42' W 095°01'0 0.0
2018-Jul-16 16:41N 29°42' W 095°01'1 1.6
2018-Jul-16 15:50N 29°44' W 095°01'5 2.9
2018-Jul-16 14:12N 29°44' W 095°07'0 0.0
2018-Jul-16 13:59N 29°44' W 095°07'3 6.3
2018-Jul-16 13:27N 29°45' W 095°10'1 3.0
2018-Jul-16 12:58N 29°44' W 095°12'0 0.3
2018-Jul-16 12:30N 29°44' W 095°12'2 0.2
2018-Jul-16 03:24N 29°45' W 095°10'4 1.9
2018-Jul-16 01:30N 29°45' W 095°06'0 0.1
2018-Jul-15 21:38N 29°45' W 095°06'2 0.1
2018-Jul-15 08:19N 29°44' W 095°08'0 0.0
2018-Jul-14 23:13N 29°44' W 095°08'1 0.1
2018-Jul-14 13:04N 29°45' W 095°07'0 0.0
2018-Jul-14 12:55N 29°45' W 095°07'0 0.0
2018-Jul-14 12:16N 29°45' W 095°07'0 0.0
2018-Jul-14 11:55N 29°45' W 095°07'1 1.5
2018-Jul-14 11:14N 29°45' W 095°06'1 3.2
2018-Jul-14 10:59N 29°45' W 095°06'0 0.2
2018-Jul-14 09:14N 29°45' W 095°07'0 0.0
2018-Jul-14 08:56N 29°45' W 095°07'0 0.0
2018-Jul-14 07:56N 29°45' W 095°07'0 0.0
2018-Jul-14 07:29N 29°45' W 095°07'0 0.0
2018-Jul-13 19:52N 29°44' W 095°07'1 1.5
2018-Jul-13 19:30N 29°45' W 095°06'0 0.1
2018-Jul-13 14:08N 29°44' W 095°06'0 0.2
2018-Jul-13 13:14N 29°44' W 095°07'1 0.0
2018-Jul-12 16:32N 29°44' W 095°08'0 0.1
2018-Jul-12 16:29N 29°44' W 095°08'0 0.0
2018-Jul-12 16:01N 29°44' W 095°08'5 0.9
2018-Jul-12 10:00N 29°44' W 095°14'0 0.1
2018-Jul-12 09:19N 29°43' W 095°14'  
Track history (hours):
 
Tides and Currents Weather Stations Pressure Air Temp Water Temp Dewpoint Dewpoint Depression Visibility Wind Speed Wind Dir Waves Ship Positions

Laura B

Owner: G & H TOWING COMPANY, Galveston, TX. More information available from US FCC via Universal Licensing System and Coast Guard Vessel Documentation Center.

Last reported at 2018-Jul-21 16:39 UTC. Time now 2018-Jul-21 19:28 UTC.
Position N 29°45' W 095°12'.

Length 24 m; draft 4.9 m.

Type: Tug. MMSI: 367748030.

Date/timePositionNaut miles runAvg speedWind from/ knotsBaromVisibWave heightAir tempDewpointWater temp
2018-Jul-21 16:39N 29°45' W 095°12'0 0.3
2018-Jul-21 15:41N 29°44' W 095°12'2 6.9
2018-Jul-21 15:24N 29°45' W 095°10'2 3.6
2018-Jul-21 14:44N 29°44' W 095°07'0 0.0
2018-Jul-21 14:18N 29°44' W 095°07'1 0.7
2018-Jul-21 13:24N 29°44' W 095°07'0 0.1
2018-Jul-21 13:00N 29°44' W 095°07'0 0.3
2018-Jul-21 12:27N 29°45' W 095°07'0 0.2
2018-Jul-21 11:25N 29°45' W 095°06'4 8.3
2018-Jul-21 11:00N 29°45' W 095°10'1 2.6
2018-Jul-21 10:27N 29°44' W 095°12'0 0.3
2018-Jul-21 09:59N 29°45' W 095°12'2 3.1
2018-Jul-21 09:29N 29°45' W 095°10'0 0.0
2018-Jul-21 07:49N 29°45' W 095°10'0 0.0
2018-Jul-21 07:25N 29°45' W 095°10'0 0.0
2018-Jul-21 06:52N 29°45' W 095°10'0 0.0
2018-Jul-21 05:34N 29°45' W 095°10'3 0.7
2018-Jul-21 01:42N 29°43' W 095°13'0 0.9
2018-Jul-21 01:29N 29°44' W 095°13'5 0.7
2018-Jul-20 17:54N 29°44' W 095°07'1 0.2
2018-Jul-20 13:17N 29°45' W 095°07'0 0.0
2018-Jul-20 12:59N 29°45' W 095°07'0 0.0
2018-Jul-20 12:09N 29°45' W 095°07'1 3.4
2018-Jul-20 12:00N 29°44' W 095°07'0 0.4
2018-Jul-20 11:25N 29°44' W 095°07'0 0.0
2018-Jul-20 10:59N 29°44' W 095°07'1 2.1
2018-Jul-20 10:30N 29°44' W 095°09'1 3.0
2018-Jul-20 10:00N 29°45' W 095°10'0 0.4
2018-Jul-20 09:30N 29°45' W 095°10'1 2.9
2018-Jul-20 09:00N 29°44' W 095°09'3 3.8
2018-Jul-20 08:12N 29°44' W 095°12'0 0.0
2018-Jul-20 08:00N 29°44' W 095°12'0 0.9
2018-Jul-20 07:30N 29°45' W 095°12'3 5.7
2018-Jul-20 07:00N 29°44' W 095°08'1 2.8
2018-Jul-20 06:30N 29°44' W 095°07'0 0.0
2018-Jul-20 05:36N 29°44' W 095°07'0 0.0
2018-Jul-20 05:18N 29°44' W 095°07'0 0.0
2018-Jul-20 04:51N 29°44' W 095°07'0 0.0
2018-Jul-20 04:27N 29°44' W 095°07'2 2.5
2018-Jul-20 03:27N 29°46' W 095°04'3 7.2
2018-Jul-20 03:00N 29°44' W 095°01'1 1.1
2018-Jul-20 01:49N 29°42' W 095°01'2 7.8
2018-Jul-20 01:30N 29°41' W 094°59'1 1.1
2018-Jul-20 00:52N 29°41' W 094°60'1 1.3
2018-Jul-20 00:28N 29°41' W 094°59'7 2.9
2018-Jul-19 22:02N 29°46' W 095°05'0 0.1
2018-Jul-19 21:56N 29°46' W 095°05'1 0.1
2018-Jul-19 17:07N 29°45' W 095°06'0 0.0
2018-Jul-19 17:00N 29°45' W 095°06'0 0.1
2018-Jul-19 16:24N 29°45' W 095°06'1 3.3
2018-Jul-19 16:00N 29°45' W 095°04'2 0.8
2018-Jul-19 13:12N 29°45' W 095°07'0 0.0
2018-Jul-19 11:21N 29°45' W 095°07'0 0.0
2018-Jul-19 10:48N 29°45' W 095°07'0 0.0
2018-Jul-19 08:03N 29°45' W 095°07'0 0.0
2018-Jul-19 07:54N 29°45' W 095°07'0 0.0
2018-Jul-19 07:18N 29°45' W 095°07'0 0.0
2018-Jul-19 06:42N 29°45' W 095°07'0 0.0
2018-Jul-19 06:30N 29°45' W 095°07'1 1.2
2018-Jul-19 05:55N 29°44' W 095°07'0 0.2
2018-Jul-19 05:30N 29°44' W 095°07'2 3.0
2018-Jul-19 04:57N 29°45' W 095°06'0 0.0
2018-Jul-19 04:30N 29°45' W 095°06'0 0.0
2018-Jul-19 03:48N 29°45' W 095°06'0 0.0
2018-Jul-19 03:30N 29°45' W 095°06'0 0.0
2018-Jul-19 02:51N 29°45' W 095°06'5 2.2
2018-Jul-19 00:44N 29°43' W 095°01'2 8.7
2018-Jul-19 00:29N 29°41' W 094°59'1 1.2
2018-Jul-18 23:36N 29°41' W 095°00'0 2.8
2018-Jul-18 23:30N 29°41' W 095°00'1 2.5
2018-Jul-18 22:55N 29°40' W 094°59'1 2.2
2018-Jul-18 22:30N 29°41' W 094°59'4 7.7
2018-Jul-18 21:57N 29°44' W 095°03'4 2.6
2018-Jul-18 20:20N 29°44' W 095°08'1 0.1
2018-Jul-18 12:33N 29°45' W 095°07'0 0.0
2018-Jul-18 12:04N 29°45' W 095°07'0 4.9
2018-Jul-18 11:59N 29°44' W 095°07'0 0.7
2018-Jul-18 11:31N 29°44' W 095°07'1 1.3
2018-Jul-18 10:26N 29°45' W 095°06'0 0.0
2018-Jul-18 10:00N 29°45' W 095°06'1 2.8
2018-Jul-18 09:30N 29°46' W 095°05'1 1.1
2018-Jul-18 09:00N 29°46' W 095°05'1 0.7
2018-Jul-18 06:57N 29°45' W 095°07'0 0.0
2018-Jul-18 06:27N 29°45' W 095°07'0 0.0
2018-Jul-18 04:43N 29°45' W 095°07'1 6.2
2018-Jul-18 04:30N 29°45' W 095°06'5 3.3
2018-Jul-18 03:02N 29°42' W 095°01'0 5.9
2018-Jul-18 03:00N 29°42' W 095°01'2 0.4
2018-Jul-17 23:18N 29°42' W 094°59'1 1.5
2018-Jul-17 22:35N 29°41' W 095°00'0 3.3
2018-Jul-17 22:30N 29°41' W 095°00'2 3.3
2018-Jul-17 21:59N 29°40' W 094°59'1 2.6
2018-Jul-17 21:30N 29°41' W 094°59'1 2.3
2018-Jul-17 21:00N 29°41' W 095°00'0 0.1
2018-Jul-17 20:17N 29°41' W 095°00'1 3.9
2018-Jul-17 19:57N 29°41' W 094°59'0 0.4
2018-Jul-17 19:30N 29°41' W 094°59'0 0.0
2018-Jul-17 18:59N 29°41' W 094°59'0 0.0
2018-Jul-17 18:29N 29°41' W 094°59'1 2.2
2018-Jul-17 18:00N 29°41' W 095°00'2 3.8
2018-Jul-17 17:23N 29°39' W 094°58'1 2.3
2018-Jul-17 17:00N 29°40' W 094°59'5 6.7
2018-Jul-17 16:16N 29°44' W 095°02'3 9.3
2018-Jul-17 15:58N 29°46' W 095°05'5 1.8
2018-Jul-17 13:21N 29°45' W 095°10'1 3.8
2018-Jul-17 13:00N 29°44' W 095°09'1 1.3
2018-Jul-17 12:21N 29°44' W 095°08'0 0.9
2018-Jul-17 11:50N 29°44' W 095°07'0 0.0
2018-Jul-17 11:29N 29°44' W 095°07'0 0.7
2018-Jul-17 10:57N 29°44' W 095°07'0 0.0
2018-Jul-17 08:43N 29°44' W 095°07'2 8.1
2018-Jul-17 08:30N 29°44' W 095°09'2 3.9
2018-Jul-17 08:00N 29°45' W 095°11'0 0.7
2018-Jul-17 07:30N 29°45' W 095°11'0 0.4
2018-Jul-17 06:59N 29°45' W 095°11'0 0.0
2018-Jul-17 06:30N 29°45' W 095°11'0 0.0
2018-Jul-17 06:00N 29°45' W 095°11'0 0.0
2018-Jul-17 05:30N 29°45' W 095°11'0 0.0
2018-Jul-17 05:00N 29°45' W 095°11'0 0.0
2018-Jul-17 04:30N 29°45' W 095°11'1 1.5
2018-Jul-17 04:00N 29°44' W 095°10'3 1.6
2018-Jul-17 02:21N 29°44' W 095°07'1 0.4
2018-Jul-16 23:22N 29°44' W 095°08'6 1.8
2018-Jul-16 20:06N 29°43' W 095°01'1 5.3
2018-Jul-16 20:00N 29°42' W 095°01'0 0.0
2018-Jul-16 16:41N 29°42' W 095°01'1 1.6
2018-Jul-16 15:50N 29°44' W 095°01'5 2.9
2018-Jul-16 14:12N 29°44' W 095°07'0 0.0
2018-Jul-16 13:59N 29°44' W 095°07'3 6.3
2018-Jul-16 13:27N 29°45' W 095°10'1 3.0
2018-Jul-16 12:58N 29°44' W 095°12'0 0.3
2018-Jul-16 12:30N 29°44' W 095°12'2 0.2
2018-Jul-16 03:24N 29°45' W 095°10'4 1.9
2018-Jul-16 01:30N 29°45' W 095°06'0 0.1
2018-Jul-15 21:38N 29°45' W 095°06'2 0.1
2018-Jul-15 08:19N 29°44' W 095°08'0 0.0
2018-Jul-14 23:13N 29°44' W 095°08'1 0.1
2018-Jul-14 13:04N 29°45' W 095°07'0 0.0
2018-Jul-14 12:55N 29°45' W 095°07'0 0.0
2018-Jul-14 12:16N 29°45' W 095°07'0 0.0
2018-Jul-14 11:55N 29°45' W 095°07'1 1.5
2018-Jul-14 11:14N 29°45' W 095°06'1 3.2
2018-Jul-14 10:59N 29°45' W 095°06'0 0.2
2018-Jul-14 09:14N 29°45' W 095°07'0 0.0
2018-Jul-14 08:56N 29°45' W 095°07'0 0.0
2018-Jul-14 07:56N 29°45' W 095°07'0 0.0
2018-Jul-14 07:29N 29°45' W 095°07'0 0.0
2018-Jul-13 19:52N 29°44' W 095°07'1 1.5
2018-Jul-13 19:30N 29°45' W 095°06'0 0.1
2018-Jul-13 14:08N 29°44' W 095°06'0 0.2
2018-Jul-13 13:14N 29°44' W 095°07'1 0.0
2018-Jul-12 16:32N 29°44' W 095°08'0 0.1
2018-Jul-12 16:29N 29°44' W 095°08'0 0.0
2018-Jul-12 16:01N 29°44' W 095°08'5 0.9
2018-Jul-12 10:00N 29°44' W 095°14'0 0.1
2018-Jul-12 09:19N 29°43' W 095°14'  

Dump ship's entire track history